Johnstown, PA (15901)

07:47 PM EDT del 31 Agosto 2015 (GMT -0400)
Cambria City | | Change Station
CLOSE
Current Station
Stazione meteo personale
Location: Johnstown, PA
Altitudine: 1161 ft
Stazioni meteo nelle vicinanze

Alt. 1161 ft 40.34 °N, 78.93 °W | Updated 11 seconds ago

Sereno
Sereno
77.0 °F
Sembra 79 °F
N
0.0
Vento Variabile Vento da Nord
Gusts 0.0 mph

Oggi
Massima -- | Minima -- °F
--% Possibilità di precip.
Ieri
Massima -- | Minima -- °F
Precip. -- in
6:41 AM 7:49 PM
Gobba a levante, 93% visible
Pressione 30.07 in
Visibilità 10.0 miglia
Nuvole Sereno
Indice di calore 79 °F
Punto di rugiada 68 °F
Umidità 73%
Piovosità Non disponibile.
Spessore del manto nevoso Non disponibile.
Raggi UV 0 fuori da 12
Polline 10.20 fuori da 12
Qualità dell'aria Non disponibile.
Flu Activity Non disponibile.
METAR KJST 312254Z AUTO 31006KT 10SM CLR 27/16 A3012 RMK AO2 SLP181 T02670156
Pressione 30.07 in
Visibilità 10.0 miglia
Nuvole Sereno
Indice di calore 79 °F
Punto di rugiada 68 °F
Umidità 73%
Piovosità Non disponibile.
Spessore del manto nevoso Non disponibile.
Raggi UV 0 fuori da 12
Polline 10.20 fuori da 12
Qualità dell'aria Non disponibile.
Flu Activity Non disponibile.
METAR KJST 312254Z AUTO 31006KT 10SM CLR 27/16 A3012 RMK AO2 SLP181 T02670156

10-Day Weather Forecast

×

Almanac

Astronomia

Aug. 31, 2015 Alba Tramonto
Ora attuale
Crepuscolo civile
Crepuscolo nautico
Crepuscolo astronomico
Luna
Estensione della luce visibile
Lunghezza del giorno
Tomorrow will be .
, % of the Moon is Illuminated

Gli estremi di oggi

State Highs State Lows

Community

WunderPhotos

Upload Photos

1,851,395 foto caricate!

WunderBlogs® & News

Nearby

Qualità dell'aria

  Qualità dell'aria Indice AQ Inquinante
Not available.

Profondità neve

Stazione Profondità Altitudine

Attività sismica

Città  Distanza Mag. Data & Ora
Minimo Magnitudo Mostrato è 2.5.

Temperature delle acque costiere

Località Temperatura

Stations

Stazioni meteo nelle vicinanze

Ubicazione della stazione Temp. Raffreddamento del vento Punto di rugiada Umidità Vento Precip. Alt. Aggiornato Tipo